createdAt,value
2023-07-05T00:00:35.542Z,97.42
2023-07-05T00:01:35.613Z,97.92
2023-07-05T00:02:35.614Z,98.54
2023-07-05T00:03:35.629Z,98.13
2023-07-05T00:04:35.621Z,97.92
2023-07-05T00:05:35.620Z,98.03
2023-07-05T00:06:35.623Z,97.92
2023-07-05T00:07:35.647Z,98.23
2023-07-05T00:08:35.681Z,98.28
2023-07-05T00:09:35.690Z,97.88
2023-07-05T00:10:35.691Z,98.28
2023-07-05T00:11:35.708Z,98.90
2023-07-05T00:12:35.727Z,98.08
2023-07-05T00:13:35.869Z,98.34
2023-07-05T00:14:35.741Z,97.73
2023-07-05T00:15:35.768Z,97.53
2023-07-05T00:16:35.847Z,97.02
2023-07-05T00:17:35.824Z,96.67
2023-07-05T00:18:35.827Z,96.67
2023-07-05T00:19:35.833Z,96.67
2023-07-05T00:20:35.836Z,96.53
2023-07-05T00:21:35.856Z,95.82
2023-07-05T00:22:35.889Z,95.31
2023-07-05T00:23:35.899Z,95.51
2023-07-05T00:24:35.927Z,96.33
2023-07-05T00:25:35.919Z,97.14
2023-07-05T00:26:35.929Z,97.85
2023-07-05T00:27:35.954Z,98.05
2023-07-05T00:28:35.944Z,98.14
2023-07-05T00:29:35.965Z,98.61
2023-07-05T00:30:35.994Z,98.50
2023-07-05T00:31:36.050Z,98.61
2023-07-05T00:32:36.065Z,98.91
2023-07-05T00:33:36.042Z,98.50
2023-07-05T00:34:36.041Z,98.50
2023-07-05T00:35:36.063Z,98.81
2023-07-05T00:36:36.085Z,99.11
2023-07-05T00:37:36.166Z,99.52
2023-07-05T00:38:36.098Z,99.82
2023-07-05T00:39:36.123Z,99.99
2023-07-05T00:40:36.148Z,99.99
2023-07-05T00:41:36.177Z,99.99
2023-07-05T00:42:36.204Z,99.99
2023-07-05T00:43:36.276Z,99.99
2023-07-05T00:44:36.394Z,99.99
2023-07-05T00:45:36.242Z,99.99
2023-07-05T00:46:36.319Z,99.99
2023-07-05T00:47:36.312Z,99.99
2023-07-05T00:48:36.269Z,99.99
2023-07-05T00:49:36.290Z,99.99
2023-07-05T00:50:36.298Z,99.99
2023-07-05T00:51:36.334Z,99.99
2023-07-05T00:52:36.327Z,99.99
2023-07-05T00:53:36.348Z,99.99
2023-07-05T00:54:36.363Z,99.99
2023-07-05T00:55:36.408Z,99.99
2023-07-05T00:56:36.388Z,99.99
2023-07-05T00:57:36.410Z,99.99
2023-07-05T00:58:36.413Z,99.99
2023-07-05T00:59:36.436Z,99.99
2023-07-05T01:00:36.469Z,99.99
2023-07-05T01:01:41.658Z,99.99
2023-07-05T01:02:36.508Z,99.99
2023-07-05T01:03:36.520Z,99.99
2023-07-05T01:04:36.517Z,99.99
2023-07-05T01:05:36.587Z,99.99
2023-07-05T01:06:36.524Z,99.99
2023-07-05T01:07:36.545Z,99.99
2023-07-05T01:08:36.553Z,99.99
2023-07-05T01:09:36.594Z,99.99
2023-07-05T01:10:36.740Z,99.99
2023-07-05T01:13:04.426Z,99.99
2023-07-05T01:13:09.762Z,99.99
2023-07-05T01:14:09.800Z,99.99
2023-07-05T01:15:09.811Z,99.99
2023-07-05T01:16:09.805Z,99.99
2023-07-05T01:17:09.840Z,99.99
2023-07-05T01:18:09.845Z,99.99
2023-07-05T01:19:09.847Z,99.99
2023-07-05T01:20:09.865Z,99.99
2023-07-05T01:21:09.883Z,99.99
2023-07-05T01:22:09.888Z,99.99
2023-07-05T01:23:09.905Z,99.99
2023-07-05T01:24:09.932Z,99.99
2023-07-05T01:25:09.931Z,99.99
2023-07-05T01:26:09.938Z,99.99
2023-07-05T01:27:09.982Z,99.99
2023-07-05T01:28:09.987Z,99.99
2023-07-05T01:29:10.015Z,99.99
2023-07-05T01:30:10.012Z,99.99
2023-07-05T01:31:10.084Z,99.99
2023-07-05T01:32:10.036Z,99.99
2023-07-05T01:33:10.084Z,99.99
2023-07-05T01:34:10.078Z,99.99
2023-07-05T01:35:10.101Z,99.99
2023-07-05T01:36:10.104Z,99.99
2023-07-05T01:37:10.126Z,99.99
2023-07-05T01:38:10.130Z,99.99
2023-07-05T01:39:10.151Z,99.99
2023-07-05T01:40:10.160Z,99.99
2023-07-05T01:41:10.181Z,99.99
2023-07-05T01:42:10.206Z,99.99
2023-07-05T01:43:10.232Z,99.99
2023-07-05T01:44:10.237Z,99.99
2023-07-05T01:45:10.278Z,99.99
2023-07-05T01:46:10.256Z,99.99
2023-07-05T01:47:10.356Z,99.99
2023-07-05T01:48:10.275Z,99.99
2023-07-05T01:49:10.356Z,99.99
2023-07-05T01:50:10.314Z,99.99
2023-07-05T01:51:10.330Z,99.99
2023-07-05T01:52:10.345Z,99.99
2023-07-05T01:53:10.360Z,99.99
2023-07-05T01:54:10.358Z,99.99
2023-07-05T01:55:10.390Z,99.99
2023-07-05T01:56:10.410Z,99.99
2023-07-05T01:57:10.429Z,99.99
2023-07-05T01:58:10.422Z,99.99
2023-07-05T01:59:10.447Z,99.99
2023-07-05T02:00:10.474Z,99.99
2023-07-05T02:01:10.556Z,99.99
2023-07-05T02:02:10.523Z,99.99
2023-07-05T02:03:10.603Z,99.99
2023-07-05T02:04:10.517Z,99.99
2023-07-05T02:05:10.555Z,99.99
2023-07-05T02:06:10.565Z,99.99
2023-07-05T02:07:10.578Z,99.99
2023-07-05T02:08:10.585Z,99.99
2023-07-05T02:09:10.609Z,99.99
2023-07-05T02:10:10.635Z,99.99
2023-07-05T02:11:10.679Z,99.99
2023-07-05T02:12:12.898Z,99.99
2023-07-05T02:13:10.666Z,99.99
2023-07-05T02:14:10.676Z,99.99
2023-07-05T02:15:10.713Z,99.99
2023-07-05T02:16:10.718Z,99.99
2023-07-05T02:17:10.740Z,99.99
2023-07-05T02:18:10.736Z,99.99
2023-07-05T02:19:10.799Z,99.99
2023-07-05T02:20:10.792Z,99.99
2023-07-05T02:21:10.788Z,99.99
2023-07-05T02:22:10.877Z,99.99
2023-07-05T02:23:10.816Z,99.99
2023-07-05T02:24:10.837Z,99.99
2023-07-05T02:25:10.862Z,99.99
2023-07-05T02:26:10.850Z,99.99
2023-07-05T02:27:10.884Z,99.99
2023-07-05T02:28:10.887Z,99.99
2023-07-05T02:29:10.941Z,99.99
2023-07-05T02:30:10.917Z,99.99
2023-07-05T02:31:10.953Z,99.99
2023-07-05T02:32:10.941Z,99.99
2023-07-05T02:33:10.951Z,99.99
2023-07-05T02:34:10.979Z,99.99
2023-07-05T02:35:10.981Z,99.99
2023-07-05T02:36:11.011Z,99.99
2023-07-05T02:37:11.006Z,99.99
2023-07-05T02:38:11.046Z,99.99
2023-07-05T02:39:11.047Z,99.99
2023-07-05T02:40:11.069Z,99.99
2023-07-05T02:41:11.090Z,99.99
2023-07-05T02:42:11.138Z,99.99
2023-07-05T02:43:11.139Z,99.99
2023-07-05T02:44:11.125Z,99.99
2023-07-05T02:45:11.139Z,99.99
2023-07-05T02:46:11.214Z,99.99
2023-07-05T02:47:11.162Z,99.99
2023-07-05T02:48:11.205Z,99.99
2023-07-05T02:49:11.198Z,99.99
2023-07-05T02:50:11.217Z,99.99
2023-07-05T02:51:11.233Z,99.99
2023-07-05T02:52:11.263Z,99.99
2023-07-05T02:53:11.284Z,99.99
2023-07-05T02:54:11.270Z,99.99
2023-07-05T02:55:11.281Z,99.99
2023-07-05T02:56:11.320Z,99.99
2023-07-05T02:57:11.374Z,99.99
2023-07-05T02:58:11.343Z,99.99
2023-07-05T02:59:11.353Z,99.99
2023-07-05T03:00:11.409Z,99.99
2023-07-05T03:01:11.429Z,99.99
2023-07-05T03:02:11.405Z,99.99
2023-07-05T03:03:11.408Z,99.99
2023-07-05T03:04:11.471Z,99.99
2023-07-05T03:05:11.448Z,99.99
2023-07-05T03:06:11.470Z,99.99
2023-07-05T03:07:11.475Z,99.99
2023-07-05T03:08:11.484Z,99.99
2023-07-05T03:09:11.495Z,99.99
2023-07-05T03:10:11.510Z,99.99
2023-07-05T03:11:11.537Z,99.99
2023-07-05T03:12:11.535Z,99.99
2023-07-05T03:13:11.544Z,99.99
2023-07-05T03:14:11.565Z,99.99
2023-07-05T03:15:11.579Z,99.99
2023-07-05T03:16:11.745Z,99.99
2023-07-05T03:17:11.618Z,99.99
2023-07-05T03:18:11.642Z,99.99
2023-07-05T03:19:11.654Z,99.99
2023-07-05T03:20:11.680Z,99.99
2023-07-05T03:21:11.712Z,99.99
2023-07-05T03:22:11.694Z,99.99
2023-07-05T03:23:11.706Z,99.99
2023-07-05T03:24:11.790Z,99.99
2023-07-05T03:25:11.750Z,99.99
2023-07-05T03:26:11.747Z,99.99
2023-07-05T03:27:11.759Z,99.99
2023-07-05T03:28:11.779Z,99.99
2023-07-05T03:29:11.790Z,99.99
2023-07-05T03:30:11.839Z,99.99
2023-07-05T03:31:11.838Z,99.99
2023-07-05T03:32:11.844Z,99.99
2023-07-05T03:33:11.855Z,99.99
2023-07-05T03:34:11.882Z,99.99
2023-07-05T03:35:11.905Z,99.99
2023-07-05T03:36:11.900Z,99.99
2023-07-05T03:37:11.932Z,99.99
2023-07-05T03:38:11.932Z,99.99
2023-07-05T03:39:11.946Z,99.99
2023-07-05T03:40:17.947Z,99.99
2023-07-05T03:41:11.959Z,99.99
2023-07-05T03:42:11.976Z,99.99
2023-07-05T03:43:11.998Z,99.99
2023-07-05T03:44:12.006Z,99.99
2023-07-05T03:45:12.011Z,99.99
2023-07-05T03:46:12.086Z,99.99
2023-07-05T03:47:12.041Z,99.99
2023-07-05T03:48:12.076Z,99.99
2023-07-05T03:49:12.094Z,99.99
2023-07-05T03:50:12.095Z,99.99
2023-07-05T03:51:12.109Z,99.99
2023-07-05T03:52:12.117Z,99.99
2023-07-05T03:53:12.152Z,99.99
2023-07-05T03:54:12.166Z,99.99
2023-07-05T03:55:12.182Z,99.99
2023-07-05T03:56:13.090Z,99.99
2023-07-05T03:57:12.226Z,99.99
2023-07-05T03:58:12.253Z,99.99
2023-07-05T03:59:12.251Z,99.99
2023-07-05T04:00:12.263Z,99.99
2023-07-05T04:01:12.323Z,99.99
2023-07-05T04:02:12.308Z,99.99
2023-07-05T04:03:12.348Z,99.99
2023-07-05T04:04:12.325Z,99.99
2023-07-05T04:05:12.329Z,99.99
2023-07-05T04:06:12.355Z,99.99
2023-07-05T04:07:12.381Z,99.99
2023-07-05T04:08:12.378Z,99.99
2023-07-05T04:09:12.388Z,99.99
2023-07-05T04:10:12.401Z,99.99
2023-07-05T04:11:12.418Z,99.99
2023-07-05T04:12:12.451Z,99.99
2023-07-05T04:13:12.451Z,99.99
2023-07-05T04:14:12.471Z,99.99
2023-07-05T04:15:12.479Z,99.99
2023-07-05T04:16:12.542Z,99.99
2023-07-05T04:17:12.528Z,99.99
2023-07-05T04:18:12.539Z,99.99
2023-07-05T04:19:14.206Z,99.99
2023-07-05T04:20:12.554Z,99.99
2023-07-05T04:21:12.578Z,99.99
2023-07-05T04:22:12.573Z,99.99
2023-07-05T04:23:12.583Z,99.99
2023-07-05T04:24:12.612Z,99.99
2023-07-05T04:25:12.617Z,99.99
2023-07-05T04:26:12.650Z,99.99
2023-07-05T04:27:12.658Z,99.99
2023-07-05T04:28:12.668Z,99.99
2023-07-05T04:29:12.677Z,99.99
2023-07-05T04:30:12.717Z,99.99
2023-07-05T04:31:12.773Z,99.99
2023-07-05T04:32:12.724Z,99.99
2023-07-05T04:33:12.736Z,99.99
2023-07-05T04:34:12.749Z,99.99
2023-07-05T04:35:12.776Z,99.99
2023-07-05T04:36:25.808Z,99.99
2023-07-05T04:37:15.343Z,99.99
2023-07-05T04:38:12.808Z,99.99
2023-07-05T04:39:12.840Z,99.99
2023-07-05T04:40:12.855Z,99.99
2023-07-05T04:41:12.848Z,99.99
2023-07-05T04:42:12.863Z,99.99
2023-07-05T04:43:12.872Z,99.99
2023-07-05T04:44:12.891Z,99.99
2023-07-05T04:45:12.924Z,99.99
2023-07-05T04:46:12.952Z,99.99
2023-07-05T04:47:12.934Z,99.99
2023-07-05T04:48:12.956Z,99.99
2023-07-05T04:49:12.984Z,99.99
2023-07-05T04:50:13.016Z,99.99
2023-07-05T04:51:12.997Z,99.99
2023-07-05T04:52:13.015Z,99.99
2023-07-05T04:53:13.032Z,99.99
2023-07-05T04:54:13.096Z,99.99
2023-07-05T04:55:14.112Z,99.99
2023-07-05T04:56:13.071Z,99.99
2023-07-05T04:57:23.315Z,99.99
2023-07-05T04:58:13.104Z,99.99
2023-07-05T04:59:13.133Z,99.99
2023-07-05T05:00:13.147Z,99.99
2023-07-05T05:01:13.217Z,99.99
2023-07-05T05:02:13.323Z,99.99
2023-07-05T05:03:13.240Z,99.99
2023-07-05T05:04:13.272Z,99.99
2023-07-05T05:05:13.214Z,99.99
2023-07-05T05:06:13.238Z,99.99
2023-07-05T05:07:13.245Z,99.99
2023-07-05T05:08:13.292Z,99.99
2023-07-05T05:09:13.281Z,99.99
2023-07-05T05:10:13.330Z,99.99
2023-07-05T05:11:13.297Z,99.99
2023-07-05T05:12:13.322Z,99.99
2023-07-05T05:13:13.482Z,99.99
2023-07-05T05:14:13.355Z,99.99
2023-07-05T05:15:13.371Z,99.99
2023-07-05T05:16:13.476Z,99.99
2023-07-05T05:17:13.505Z,99.99
2023-07-05T05:18:13.468Z,99.99
2023-07-05T05:19:13.450Z,99.99
2023-07-05T05:20:13.468Z,99.99
2023-07-05T05:21:13.485Z,99.99
2023-07-05T05:22:13.498Z,99.99
2023-07-05T05:23:13.479Z,99.99
2023-07-05T05:24:13.509Z,99.99
2023-07-05T05:25:13.511Z,99.99
2023-07-05T05:26:13.527Z,99.99
2023-07-05T05:27:13.586Z,99.99
2023-07-05T05:28:13.555Z,99.99
2023-07-05T05:29:13.563Z,99.99
2023-07-05T05:30:13.608Z,99.99
2023-07-05T05:31:13.662Z,99.99
2023-07-05T05:32:13.634Z,99.99
2023-07-05T05:33:13.651Z,99.99
2023-07-05T05:34:13.654Z,99.99
2023-07-05T05:35:13.673Z,99.99
2023-07-05T05:36:13.697Z,99.99
2023-07-05T05:37:13.683Z,99.99
2023-07-05T05:38:13.694Z,99.99
2023-07-05T05:39:13.701Z,99.99
2023-07-05T05:40:13.736Z,99.99
2023-07-05T05:41:13.756Z,99.99
2023-07-05T05:42:13.783Z,99.99
2023-07-05T05:43:13.771Z,99.99
2023-07-05T05:44:13.788Z,99.99
2023-07-05T05:45:13.835Z,99.99
2023-07-05T05:46:15.026Z,99.99
2023-07-05T05:47:13.827Z,99.99
2023-07-05T05:48:13.839Z,99.99
2023-07-05T05:49:13.846Z,99.99
2023-07-05T05:50:13.894Z,99.99
2023-07-05T05:51:13.865Z,99.99
2023-07-05T05:52:13.890Z,99.99
2023-07-05T05:53:13.907Z,99.99
2023-07-05T05:54:13.916Z,99.99
2023-07-05T05:55:13.939Z,99.99
2023-07-05T05:56:13.944Z,99.99
2023-07-05T05:57:13.954Z,99.99
2023-07-05T05:58:13.968Z,99.99
2023-07-05T05:59:13.990Z,99.99
2023-07-05T06:00:14.012Z,99.99
2023-07-05T06:01:14.010Z,99.99
2023-07-05T06:02:14.064Z,99.99
2023-07-05T06:03:14.199Z,99.99
2023-07-05T06:04:14.136Z,99.99
2023-07-05T06:05:14.059Z,99.99
2023-07-05T06:06:14.089Z,99.99
2023-07-05T06:07:14.103Z,99.99
2023-07-05T06:08:14.120Z,99.99
2023-07-05T06:09:14.147Z,99.99
2023-07-05T06:10:14.163Z,99.99
2023-07-05T06:11:14.185Z,99.99
2023-07-05T06:12:14.182Z,99.99
2023-07-05T06:13:14.256Z,99.99
2023-07-05T06:14:14.230Z,99.99
2023-07-05T06:15:14.218Z,99.99
2023-07-05T06:16:15.335Z,99.99
2023-07-05T06:17:14.248Z,99.99
2023-07-05T06:18:14.284Z,99.99
2023-07-05T06:19:14.283Z,99.99
2023-07-05T06:20:14.289Z,99.99
2023-07-05T06:21:14.323Z,99.99
2023-07-05T06:22:14.316Z,99.99
2023-07-05T06:23:14.329Z,99.99
2023-07-05T06:24:14.360Z,99.99
2023-07-05T06:25:14.425Z,99.99
2023-07-05T06:26:14.387Z,99.99
2023-07-05T06:27:14.411Z,99.99
2023-07-05T06:28:14.411Z,99.99
2023-07-05T06:29:14.427Z,99.99
2023-07-05T06:30:14.439Z,99.99
2023-07-05T06:31:14.518Z,99.99
2023-07-05T06:32:14.491Z,99.99
2023-07-05T06:33:14.477Z,99.99
2023-07-05T06:34:14.497Z,99.99
2023-07-05T06:35:14.518Z,99.99
2023-07-05T06:36:14.530Z,99.99
2023-07-05T06:37:14.561Z,99.99
2023-07-05T06:38:14.565Z,99.99
2023-07-05T06:39:14.580Z,99.99
2023-07-05T06:40:14.595Z,99.99
2023-07-05T06:41:14.603Z,99.99
2023-07-05T06:42:14.639Z,99.99
2023-07-05T06:43:14.628Z,99.99
2023-07-05T06:44:14.642Z,99.99
2023-07-05T06:45:14.664Z,99.99
2023-07-05T06:46:14.739Z,99.99
2023-07-05T06:47:14.709Z,99.99
2023-07-05T06:48:14.699Z,99.99
2023-07-05T06:49:14.736Z,99.99
2023-07-05T06:50:14.736Z,99.99
2023-07-05T06:51:14.760Z,99.99
2023-07-05T06:52:14.757Z,99.99
2023-07-05T06:53:37.773Z,99.99
2023-07-05T06:54:14.780Z,99.99
2023-07-05T06:55:14.809Z,99.99
2023-07-05T06:56:14.866Z,99.99
2023-07-05T06:57:14.831Z,99.99
2023-07-05T06:58:14.839Z,99.99
2023-07-05T06:59:14.869Z,99.99
2023-07-05T07:00:14.898Z,99.99
2023-07-05T07:01:15.002Z,99.99
2023-07-05T07:02:14.949Z,99.99
2023-07-05T07:03:14.926Z,99.99
2023-07-05T07:04:14.955Z,99.99
2023-07-05T07:05:14.970Z,99.99
2023-07-05T07:06:14.979Z,99.99
2023-07-05T07:07:15.016Z,99.99
2023-07-05T07:08:14.996Z,99.99
2023-07-05T07:09:15.014Z,99.99
2023-07-05T07:10:15.037Z,99.99
2023-07-05T07:11:15.046Z,99.99
2023-07-05T07:12:15.059Z,99.99
2023-07-05T07:13:15.094Z,99.99
2023-07-05T07:14:15.161Z,99.99
2023-07-05T07:15:15.229Z,99.99
2023-07-05T07:16:15.225Z,99.99
2023-07-05T07:17:15.214Z,99.99
2023-07-05T07:18:15.195Z,99.99
2023-07-05T07:19:15.185Z,99.99
2023-07-05T07:20:15.196Z,99.99
2023-07-05T07:21:15.198Z,99.99
2023-07-05T07:22:15.210Z,99.99
2023-07-05T07:23:15.220Z,99.99
2023-07-05T07:24:15.298Z,99.99
2023-07-05T07:25:15.261Z,99.99
2023-07-05T07:26:15.264Z,99.99
2023-07-05T07:27:15.277Z,99.99
2023-07-05T07:28:15.353Z,99.99
2023-07-05T07:29:15.338Z,99.99
2023-07-05T07:30:15.326Z,99.99
2023-07-05T07:31:15.384Z,99.99
2023-07-05T07:32:15.346Z,99.99
2023-07-05T07:33:15.390Z,99.99
2023-07-05T07:34:15.409Z,99.99
2023-07-05T07:35:15.388Z,99.99
2023-07-05T07:36:15.419Z,99.99
2023-07-05T07:37:15.415Z,99.99
2023-07-05T07:38:15.537Z,99.99
2023-07-05T07:39:15.447Z,99.99
2023-07-05T07:40:15.451Z,99.90
2023-07-05T07:41:15.504Z,99.99
2023-07-05T07:42:15.503Z,99.99
2023-07-05T07:43:15.521Z,99.99
2023-07-05T07:44:15.522Z,99.80
2023-07-05T07:45:15.541Z,99.99
2023-07-05T07:46:15.588Z,99.95
2023-07-05T07:47:15.578Z,98.54
2023-07-05T07:48:15.571Z,99.71
2023-07-05T07:49:15.604Z,99.99
2023-07-05T07:50:15.629Z,99.40
2023-07-05T07:51:31.445Z,99.30
2023-07-05T07:52:15.648Z,99.00
2023-07-05T07:53:16.971Z,97.59
2023-07-05T07:54:15.679Z,96.89
2023-07-05T07:55:15.696Z,96.98
2023-07-05T07:56:15.713Z,97.59
2023-07-05T07:57:15.722Z,98.19
2023-07-05T07:58:15.727Z,98.50
2023-07-05T07:59:15.742Z,97.03
2023-07-05T08:00:15.760Z,97.64
2023-07-05T08:01:15.782Z,97.64
2023-07-05T08:02:15.816Z,97.53
2023-07-05T08:03:15.914Z,97.33
2023-07-05T08:04:15.929Z,97.64
2023-07-05T08:05:16.042Z,97.99
2023-07-05T08:06:15.866Z,96.78
2023-07-05T08:07:15.876Z,97.89
2023-07-05T08:08:17.253Z,97.99
2023-07-05T08:09:15.892Z,98.19
2023-07-05T08:10:15.939Z,98.39
2023-07-05T08:11:15.932Z,97.24
2023-07-05T08:12:15.928Z,97.64
2023-07-05T08:13:16.043Z,97.55
2023-07-05T08:14:15.961Z,96.84
2023-07-05T08:15:15.996Z,96.14
2023-07-05T08:16:16.050Z,96.34
2023-07-05T08:17:16.011Z,96.34
2023-07-05T08:18:16.022Z,96.74
2023-07-05T08:19:16.072Z,97.24
2023-07-05T08:20:16.069Z,96.39
2023-07-05T08:21:16.082Z,95.69
2023-07-05T08:22:17.219Z,94.48
2023-07-05T08:23:16.117Z,93.78
2023-07-05T08:24:26.767Z,94.04
2023-07-05T08:25:16.164Z,93.13
2023-07-05T08:26:16.141Z,92.43
2023-07-05T08:27:16.172Z,92.13
2023-07-05T08:28:16.168Z,93.03
2023-07-05T08:29:16.222Z,90.72
2023-07-05T08:30:16.207Z,90.72
2023-07-05T08:31:16.276Z,91.22
2023-07-05T08:32:16.236Z,93.39
2023-07-05T08:33:16.264Z,90.72
2023-07-05T08:34:16.286Z,91.42
2023-07-05T08:35:16.292Z,91.22
2023-07-05T08:36:16.372Z,91.22
2023-07-05T08:37:16.320Z,90.72
2023-07-05T08:38:16.345Z,90.92
2023-07-05T08:39:16.385Z,90.92
2023-07-05T08:40:16.356Z,89.62
2023-07-05T08:41:16.364Z,90.62
2023-07-05T08:42:16.379Z,90.42
2023-07-05T08:43:16.413Z,90.62
2023-07-05T08:44:16.419Z,90.02
2023-07-05T08:45:16.426Z,90.17
2023-07-05T08:46:16.593Z,90.08
2023-07-05T08:47:16.513Z,87.77
2023-07-05T08:48:16.474Z,88.97
2023-07-05T08:49:16.490Z,89.27
2023-07-05T08:50:28.192Z,90.28
2023-07-05T08:51:16.958Z,90.28
2023-07-05T08:52:16.541Z,90.68
2023-07-05T08:53:16.543Z,90.88
2023-07-05T08:54:16.556Z,90.28
2023-07-05T08:55:16.580Z,89.58
2023-07-05T08:56:16.588Z,86.76
2023-07-05T08:57:16.633Z,87.62
2023-07-05T08:58:16.619Z,87.52
2023-07-05T08:59:16.689Z,86.82
2023-07-05T09:00:16.641Z,84.51
2023-07-05T09:01:16.738Z,86.18
2023-07-05T09:02:16.728Z,85.78
2023-07-05T09:03:16.882Z,86.18
2023-07-05T09:04:16.697Z,85.17
2023-07-05T09:05:16.709Z,83.87
2023-07-05T09:06:16.892Z,84.77
2023-07-05T09:07:16.739Z,83.53
2023-07-05T09:08:16.750Z,84.33
2023-07-05T09:09:16.768Z,84.13
2023-07-05T09:10:16.780Z,85.53
2023-07-05T09:11:16.818Z,86.74
2023-07-05T09:12:16.809Z,85.13
2023-07-05T09:13:16.890Z,82.82
2023-07-05T09:14:16.937Z,84.79
2023-07-05T09:15:16.870Z,84.79
2023-07-05T09:16:16.875Z,84.99
2023-07-05T09:17:16.936Z,84.39
2023-07-05T09:18:16.953Z,82.89
2023-07-05T09:19:16.903Z,81.68
2023-07-05T09:20:16.935Z,82.24
2023-07-05T09:21:16.932Z,80.15
2023-07-05T09:22:16.998Z,80.41
2023-07-05T09:23:16.990Z,82.41
2023-07-05T09:24:16.983Z,81.15
2023-07-05T09:25:17.914Z,80.65
2023-07-05T09:26:17.013Z,81.04
2023-07-05T09:27:17.032Z,81.59
2023-07-05T09:28:17.036Z,81.29
2023-07-05T09:29:17.074Z,80.79
2023-07-05T09:30:17.074Z,80.98
2023-07-05T09:31:17.102Z,81.68
2023-07-05T09:32:17.087Z,81.29
2023-07-05T09:33:17.131Z,82.65
2023-07-05T09:34:17.136Z,79.98
2023-07-05T09:35:17.148Z,80.94
2023-07-05T09:36:17.137Z,81.24
2023-07-05T09:37:17.160Z,80.80
2023-07-05T09:38:17.187Z,81.61
2023-07-05T09:39:17.212Z,77.91
2023-07-05T09:40:23.197Z,81.47
2023-07-05T09:41:17.225Z,77.70
2023-07-05T09:42:17.224Z,78.80
2023-07-05T09:43:17.263Z,80.00
2023-07-05T09:44:17.265Z,80.11
2023-07-05T09:45:17.291Z,80.17
2023-07-05T09:46:17.331Z,76.76
2023-07-05T09:47:17.296Z,75.37
2023-07-05T09:48:17.322Z,77.67
2023-07-05T09:49:17.325Z,74.93
2023-07-05T09:50:17.390Z,76.23
2023-07-05T09:51:17.364Z,74.39
2023-07-05T09:52:17.382Z,71.99
2023-07-05T09:53:17.388Z,72.99
2023-07-05T09:54:17.403Z,72.99
2023-07-05T09:55:17.459Z,72.99
2023-07-05T09:56:17.434Z,73.29
2023-07-05T09:57:17.472Z,72.29
2023-07-05T09:58:17.471Z,73.93
2023-07-05T09:59:17.545Z,73.63
2023-07-05T10:00:17.508Z,73.13
2023-07-05T10:01:17.573Z,71.96
2023-07-05T10:02:17.650Z,71.86
2023-07-05T10:03:17.604Z,73.16
2023-07-05T10:04:17.768Z,71.86
2023-07-05T10:05:17.590Z,71.26
2023-07-05T10:06:17.596Z,73.26
2023-07-05T10:07:17.624Z,75.13
2023-07-05T10:08:17.619Z,75.23
2023-07-05T10:09:17.660Z,72.83
2023-07-05T10:10:17.657Z,74.22
2023-07-05T10:11:17.693Z,72.99
2023-07-05T10:12:17.708Z,72.16
2023-07-05T10:13:17.745Z,72.56
2023-07-05T10:14:18.236Z,73.29
2023-07-05T10:15:17.746Z,71.49
2023-07-05T10:16:17.843Z,73.39
2023-07-05T10:18:17.821Z,74.06
2023-07-05T10:19:17.805Z,73.50
2023-07-05T10:20:17.805Z,76.24
2023-07-05T10:21:17.863Z,78.08
2023-07-05T10:22:17.842Z,75.81
2023-07-05T10:23:17.875Z,77.55
2023-07-05T10:24:17.872Z,79.19
2023-07-05T10:25:17.906Z,79.83
2023-07-05T10:26:17.905Z,80.83
2023-07-05T10:27:17.937Z,81.34
2023-07-05T10:28:17.931Z,81.78
2023-07-05T10:29:17.954Z,82.58
2023-07-05T10:30:18.020Z,81.98
2023-07-05T10:31:18.094Z,80.71
2023-07-05T10:32:18.028Z,81.92
2023-07-05T10:33:18.017Z,83.06
2023-07-05T10:34:18.045Z,82.76
2023-07-05T10:35:18.072Z,83.00
2023-07-05T10:36:19.858Z,84.31
2023-07-05T10:37:18.108Z,83.40
2023-07-05T10:38:18.098Z,83.54
2023-07-05T10:39:18.124Z,84.25
2023-07-05T10:40:18.191Z,85.76
2023-07-05T10:41:18.148Z,84.65
2023-07-05T10:42:18.156Z,84.91
2023-07-05T10:43:18.179Z,84.41
2023-07-05T10:44:18.197Z,85.22
2023-07-05T10:45:18.203Z,83.11
2023-07-05T10:46:18.249Z,83.37
2023-07-05T10:47:18.335Z,84.27
2023-07-05T10:48:18.280Z,83.87
2023-07-05T10:49:18.282Z,82.16
2023-07-05T10:50:18.329Z,83.17
2023-07-05T10:51:18.311Z,83.43
2023-07-05T10:52:18.318Z,83.93
2023-07-05T10:53:18.350Z,83.63
2023-07-05T10:54:18.358Z,82.89
2023-07-05T10:55:18.369Z,83.69
2023-07-05T10:56:18.385Z,82.68
2023-07-05T10:57:18.392Z,82.45
2023-07-05T10:58:18.440Z,80.50
2023-07-05T10:59:18.422Z,80.90
2023-07-05T11:00:30.634Z,81.56
2023-07-05T11:01:18.475Z,80.96
2023-07-05T11:02:18.504Z,80.12
2023-07-05T11:03:18.490Z,80.82
2023-07-05T11:04:18.559Z,79.36
2023-07-05T11:05:18.551Z,79.42
2023-07-05T11:06:18.529Z,79.32
2023-07-05T11:07:18.552Z,80.48
2023-07-05T11:08:18.579Z,76.28
2023-07-05T11:09:18.574Z,77.28
2023-07-05T11:10:19.506Z,77.94
2023-07-05T11:11:18.614Z,77.54
2023-07-05T11:12:18.647Z,78.80
2023-07-05T11:13:18.672Z,79.00
2023-07-05T11:14:18.633Z,80.27
2023-07-05T11:15:18.651Z,79.27
2023-07-05T11:16:18.715Z,79.36
2023-07-05T11:17:18.696Z,78.56
2023-07-05T11:18:18.699Z,77.76
2023-07-05T11:19:18.721Z,77.76
2023-07-05T11:20:18.720Z,77.43
2023-07-05T11:21:18.768Z,76.83
2023-07-05T11:22:18.764Z,76.56
2023-07-05T11:23:18.883Z,78.47
2023-07-05T11:24:18.799Z,78.70
2023-07-05T11:25:18.823Z,79.14
2023-07-05T11:26:18.847Z,78.94
2023-07-05T11:27:18.839Z,80.15
2023-07-05T11:28:18.864Z,78.84
2023-07-05T11:29:18.872Z,77.54
2023-07-05T11:30:18.896Z,77.60
2023-07-05T11:31:18.960Z,76.20
2023-07-05T11:32:18.944Z,77.70
2023-07-05T11:33:19.005Z,77.17
2023-07-05T11:34:18.959Z,77.06
2023-07-05T11:35:18.988Z,77.20
2023-07-05T11:36:19.011Z,78.27
2023-07-05T11:37:19.003Z,79.27
2023-07-05T11:38:19.018Z,78.63
2023-07-05T11:39:19.028Z,76.19
2023-07-05T11:40:19.083Z,73.89
2023-07-05T11:41:19.283Z,76.35
2023-07-05T11:42:19.082Z,76.15
2023-07-05T11:43:19.092Z,73.66
2023-07-05T11:44:19.131Z,73.96
2023-07-05T11:45:19.179Z,74.55
2023-07-05T11:46:19.220Z,74.59
2023-07-05T11:47:19.163Z,75.46
2023-07-05T11:48:19.171Z,73.75
2023-07-05T11:49:19.215Z,75.26
2023-07-05T11:50:19.230Z,75.35
2023-07-05T11:51:35.950Z,75.26
2023-07-05T11:52:19.229Z,72.42
2023-07-05T11:53:19.245Z,71.86
2023-07-05T11:54:19.291Z,73.29
2023-07-05T11:55:19.271Z,73.29
2023-07-05T11:56:19.290Z,75.99
2023-07-05T11:57:19.318Z,73.36
2023-07-05T11:58:19.317Z,74.76
2023-07-05T11:59:19.350Z,74.82
2023-07-05T12:00:19.526Z,73.86
2023-07-05T12:01:19.359Z,71.86
2023-07-05T12:02:19.377Z,72.49
2023-07-05T12:03:19.639Z,74.89
2023-07-05T12:04:19.472Z,76.09
2023-07-05T12:05:19.421Z,72.53
2023-07-05T12:06:19.430Z,74.43
2023-07-05T12:07:19.434Z,72.92
2023-07-05T12:08:19.484Z,75.06
2023-07-05T12:09:19.493Z,74.30
2023-07-05T12:10:19.508Z,74.50
2023-07-05T12:11:19.507Z,75.60
2023-07-05T12:12:19.527Z,75.16
2023-07-05T12:13:19.563Z,73.03
2023-07-05T12:14:19.556Z,74.39
2023-07-05T12:15:19.562Z,73.79
2023-07-05T12:16:19.643Z,74.46
2023-07-05T12:17:19.611Z,72.62
2023-07-05T12:18:19.618Z,72.72
2023-07-05T12:19:19.630Z,70.92
2023-07-05T12:20:19.649Z,71.12
2023-07-05T12:21:19.656Z,72.42
2023-07-05T12:22:19.696Z,72.09
2023-07-05T12:23:19.690Z,69.53
2023-07-05T12:24:19.709Z,70.92
2023-07-05T12:25:19.723Z,68.96
2023-07-05T12:26:19.736Z,70.66
2023-07-05T12:27:19.774Z,69.23
2023-07-05T12:28:19.767Z,68.23
2023-07-05T12:29:19.787Z,70.26
2023-07-05T12:30:19.811Z,70.76
2023-07-05T12:31:19.889Z,71.86
2023-07-05T12:32:19.845Z,71.99
2023-07-05T12:33:19.845Z,72.59
2023-07-05T12:34:19.858Z,70.89
2023-07-05T12:35:19.880Z,73.59
2023-07-05T12:36:19.925Z,72.39
2023-07-05T12:37:19.901Z,70.69
2023-07-05T12:38:19.915Z,70.46
2023-07-05T12:39:19.930Z,68.99
2023-07-05T12:40:19.983Z,71.39
2023-07-05T12:41:19.976Z,69.96
2023-07-05T12:42:19.969Z,68.36
2023-07-05T12:43:19.981Z,68.49
2023-07-05T12:44:20.002Z,71.09
2023-07-05T12:45:20.030Z,72.59
2023-07-05T12:46:20.027Z,69.29
2023-07-05T12:47:20.202Z,66.89
2023-07-05T12:48:20.076Z,69.29
2023-07-05T12:49:20.061Z,69.53
2023-07-05T12:50:20.100Z,71.62
2023-07-05T12:51:20.112Z,69.46
2023-07-05T12:52:20.119Z,68.66
2023-07-05T12:53:20.147Z,69.56
2023-07-05T12:54:20.144Z,71.19